LIBG

Details ICAO LIBG (TAR)
Name GROTTAGLIE
Region Italy
Timezone Europe/Rome (UTC+1.0)
Plans Departing 43
Arriving 35
Stats Elevation 215 ft / 66 m (AMSL)
Location 40.517513° 17.403211°
Runways 1
Magnetic Variation 3.794° E
Sunrise 2017-12-17 06:09:23 UTC / 2017-12-17 07:09:23 Local
Sunset 2017-12-17 15:26:20 UTC / 2017-12-17 16:26:20 Local
Advertisement - Login to hide

Runways

ID Width Length Bearing (true) Bearing (mag) Surface Threshold Offset Overrun Length
17 148 ft / 45 m 10,509 ft / 3,203 m 168.69° 164.90° Asphalt 1,378 ft / 420 m 0 ft / 0 m
35 148 ft / 45 m 10,509 ft / 3,203 m 348.69° 344.90° Asphalt 1,247 ft / 380 m 0 ft / 0 m

Approach Navaids

Runway Type Ident Frequency Range Bearing (true) Bearing (mag) Slope Elevation
35 Localiser ITGT 108.35 MHz 20 nm / 37 km 348.72° 344.93° - 215 ft / 66 m (AMSL)
35 Glidescope ITGT 108.35 MHz 10 nm / 19 km 348.72° 344.93° 3.00° 215 ft / 66 m (AMSL)
35 DME ITGT 108.35 MHz 25 nm / 46 km - - - 215 ft / 66 m (AMSL)

Map

Weather


0- 5 10 15 20 25 30 35+ Temperature / ° C

Clouds and Precipitation
Forecast for 2017-12-17 18:00 UTC. Updated an hour ago

Ground ~20,000 ft ~40,000 ft Winds

METAR

LIBG 171750Z 28003KT 250V320 CAVOK 07/04 Q1014

TAF

Not found

Frequencies

Tower 118.70 MHz TWR
Approach 122.10 MHz APP
Approach 118.70 MHz APP
Warning: Do not use this data for real-world aviation or navigation. No guarantee of current accuracy is given.